createdAt,value
2023-01-18T06:18:07.170Z,985.35
2023-01-18T06:28:07.422Z,985.47
2023-01-18T06:38:07.335Z,985.48
2023-01-18T06:48:07.381Z,985.68
2023-01-18T06:58:07.298Z,985.69
2023-01-18T07:08:07.394Z,985.82
2023-01-18T07:18:07.485Z,986.09
2023-01-18T07:28:07.343Z,986.12
2023-01-18T07:38:07.283Z,986.40
2023-01-18T07:48:07.406Z,986.46
2023-01-18T07:58:07.495Z,986.64
2023-01-18T08:08:07.377Z,986.58
2023-01-18T08:18:07.320Z,986.65
2023-01-18T08:28:07.365Z,986.81
2023-01-18T08:38:07.540Z,987.02
2023-01-18T08:48:07.614Z,987.13
2023-01-18T08:58:07.620Z,987.17
2023-01-18T09:08:07.712Z,987.40
2023-01-18T09:18:07.709Z,987.48
2023-01-18T09:28:07.650Z,987.69
2023-01-18T09:38:07.684Z,987.86
2023-01-18T09:48:07.771Z,988.01
2023-01-18T09:58:07.654Z,988.06
2023-01-18T10:08:07.618Z,988.28
2023-01-18T10:18:07.661Z,988.22
2023-01-18T10:28:07.562Z,988.29
2023-01-18T10:38:07.672Z,988.40
2023-01-18T10:48:07.703Z,988.34
2023-01-18T10:58:07.531Z,988.41
2023-01-18T11:08:07.583Z,988.50
2023-01-18T11:18:07.682Z,988.46
2023-01-18T11:28:07.639Z,988.46
2023-01-18T11:38:07.672Z,988.47
2023-01-18T11:48:07.753Z,988.46
2023-01-18T11:58:07.737Z,988.47
2023-01-18T12:08:07.642Z,988.47
2023-01-18T12:18:13.401Z,988.54
2023-01-18T12:28:07.567Z,988.53
2023-01-18T12:38:07.590Z,988.59
2023-01-18T12:48:07.708Z,988.63
2023-01-18T12:58:07.657Z,988.66
2023-01-18T13:08:07.784Z,988.73
2023-01-18T13:18:07.672Z,988.73
2023-01-18T13:28:07.629Z,988.91
2023-01-18T13:38:07.681Z,989.03
2023-01-18T13:48:07.833Z,989.14
2023-01-18T13:58:07.822Z,989.18
2023-01-18T14:08:07.913Z,989.26
2023-01-18T14:18:07.865Z,989.49
2023-01-18T14:28:07.840Z,989.54
2023-01-18T14:38:17.537Z,989.63
2023-01-18T14:48:07.781Z,989.74
2023-01-18T14:58:07.824Z,989.92
2023-01-18T15:08:07.884Z,989.97
2023-01-18T15:18:07.901Z,990.06
2023-01-18T15:28:22.812Z,990.33
2023-01-18T15:38:07.864Z,990.55
2023-01-18T15:48:07.923Z,990.64
2023-01-18T15:58:07.950Z,990.73
2023-01-18T16:08:15.766Z,990.92
2023-01-18T16:18:08.046Z,991.04
2023-01-18T16:28:07.879Z,991.11
2023-01-18T16:38:07.786Z,991.20
2023-01-18T16:48:07.808Z,991.19
2023-01-18T16:58:07.956Z,991.24
2023-01-18T17:08:07.805Z,991.33
2023-01-18T17:18:07.852Z,991.51
2023-01-18T17:28:07.900Z,991.64
2023-01-18T17:38:17.305Z,991.68
2023-01-18T17:48:07.952Z,991.75
2023-01-18T17:58:07.875Z,991.67
2023-01-18T18:08:07.869Z,991.74
2023-01-18T18:18:21.932Z,991.86
2023-01-18T18:28:07.870Z,992.11
2023-01-18T18:38:07.834Z,992.12
2023-01-18T18:48:07.932Z,992.23
2023-01-18T18:58:07.979Z,992.20
2023-01-18T19:08:07.832Z,992.33
2023-01-18T19:18:07.912Z,992.45
